Time;durP1;ratioP1;P1;durP2;ratioP2;P2;SDS_P1;SDS_P2;PMS_P1;PMS_P2;Temp;Humidity;BMP_temperature;BMP_pressure;BME280_temperature;BME280_humidity;BME280_pressure;Samples;Min_cycle;Max_cycle;Signal;HPM_P1;HPM_P2
2021/08/17 00:02:07;;;;;;;15.00;2.22;;;13.30;85.40;;;;;;5052166;28;20036;-77
2021/08/17 00:04:33;;;;;;;8.60;1.73;;;13.30;85.50;;;;;;5053054;28;20028;-77
2021/08/17 00:06:58;;;;;;;11.73;2.17;;;13.30;85.50;;;;;;5035318;28;20021;-76
2021/08/17 00:09:24;;;;;;;9.85;2.05;;;13.20;85.40;;;;;;5051879;28;20025;-76
2021/08/17 00:11:50;;;;;;;8.90;2.13;;;13.20;85.60;;;;;;5035335;28;20048;-79
2021/08/17 00:14:15;;;;;;;12.95;2.75;;;13.20;86.00;;;;;;5035203;28;20025;-78
2021/08/17 00:16:41;;;;;;;14.77;2.38;;;13.10;86.80;;;;;;5035636;28;20029;-77
2021/08/17 00:19:06;;;;;;;15.40;2.47;;;13.10;86.20;;;;;;5052276;28;20027;-78
2021/08/17 00:21:32;;;;;;;16.23;2.50;;;13.10;86.30;;;;;;5035481;28;20032;-77
2021/08/17 00:23:58;;;;;;;11.25;2.00;;;13.10;86.30;;;;;;5052095;28;20040;-78
2021/08/17 00:26:23;;;;;;;13.02;2.33;;;13.10;86.40;;;;;;5051843;28;20030;-76
2021/08/17 00:28:49;;;;;;;10.70;3.08;;;13.10;86.50;;;;;;5055413;28;20033;-78
2021/08/17 00:31:15;;;;;;;10.88;2.28;;;13.10;86.40;;;;;;5038858;28;20112;-78
2021/08/17 00:33:40;;;;;;;10.43;1.38;;;13.10;86.60;;;;;;5039012;28;20029;-77
2021/08/17 00:36:06;;;;;;;9.45;1.98;;;13.10;86.80;;;;;;5038187;28;20035;-76
2021/08/17 00:38:37;;;;;;;11.05;2.20;;;13.10;86.70;;;;;;5076051;28;20048;-77
2021/08/17 00:41:03;;;;;;;11.02;2.17;;;13.10;86.80;;;;;;5074581;28;20023;-77
2021/08/17 00:43:29;;;;;;;10.40;2.03;;;13.10;86.80;;;;;;5041644;28;20029;-78
2021/08/17 00:45:54;;;;;;;10.05;2.05;;;13.00;86.90;;;;;;5076895;28;20036;-78
2021/08/17 00:48:20;;;;;;;7.28;1.85;;;13.00;86.90;;;;;;5058313;28;20028;-78
2021/08/17 00:50:46;;;;;;;7.55;1.80;;;13.00;87.10;;;;;;5058133;28;20036;-76
2021/08/17 00:53:13;;;;;;;10.35;2.40;;;13.00;87.00;;;;;;5074799;28;20116;-76
2021/08/17 00:55:39;;;;;;;10.98;2.22;;;13.00;87.10;;;;;;5076284;28;20543;-78
2021/08/17 00:58:05;;;;;;;11.75;1.85;;;12.90;87.00;;;;;;5058538;28;20369;-77
2021/08/17 01:00:31;;;;;;;9.90;1.88;;;13.00;87.30;;;;;;5058699;28;20082;-77
2021/08/17 01:02:56;;;;;;;10.77;2.03;;;13.00;87.40;;;;;;5076123;28;20495;-77
2021/08/17 01:05:27;;;;;;;13.45;2.40;;;12.90;87.50;;;;;;5075976;28;20027;-77
2021/08/17 01:07:53;;;;;;;9.18;2.30;;;12.90;87.50;;;;;;5074568;28;20498;-77
2021/08/17 01:10:19;;;;;;;7.57;2.13;;;12.90;88.20;;;;;;5057966;28;20028;-75
2021/08/17 01:12:44;;;;;;;14.35;2.20;;;12.90;87.80;;;;;;5075955;28;20079;-78
2021/08/17 01:15:14;;;;;;;10.00;1.92;;;12.90;87.80;;;;;;5074618;28;20116;-78
2021/08/17 01:17:40;;;;;;;12.18;2.25;;;12.90;87.80;;;;;;5074571;28;20016;-78
2021/08/17 01:20:13;;;;;;;15.15;2.63;;;12.90;87.90;;;;;;5074343;28;20504;-77
2021/08/17 01:22:43;;;;;;;12.32;2.13;;;12.80;88.00;;;;;;5075498;28;20021;-77
2021/08/17 01:25:11;;;;;;;9.43;2.00;;;12.80;88.10;;;;;;5074187;28;20032;-77
2021/08/17 01:27:41;;;;;;;7.25;1.70;;;12.80;88.20;;;;;;5063631;28;20114;-78
2021/08/17 01:30:09;;;;;;;9.80;2.38;;;12.70;88.30;;;;;;5070503;28;20036;-76
2021/08/17 01:32:35;;;;;;;12.43;2.38;;;12.80;88.50;;;;;;5037118;28;20017;-76
2021/08/17 01:35:01;;;;;;;10.25;2.10;;;12.80;88.80;;;;;;5055062;28;20100;-77
2021/08/17 01:37:26;;;;;;;9.30;2.13;;;12.80;88.80;;;;;;5053298;28;20110;-77
2021/08/17 01:40:05;;;;;;;10.60;1.73;;;12.80;89.20;;;;;;5054858;28;20076;-77
2021/08/17 01:42:31;;;;;;;10.20;1.70;;;12.80;88.60;;;;;;5055048;28;20533;-78
2021/08/17 01:45:00;;;;;;;10.00;1.92;;;12.80;88.60;;;;;;5053979;28;20103;-78
2021/08/17 01:47:30;;;;;;;10.60;1.73;;;12.70;88.70;;;;;;5054848;28;20100;-77
2021/08/17 01:49:56;;;;;;;9.52;2.42;;;12.70;89.10;;;;;;5053599;28;20048;-78
2021/08/17 01:52:21;;;;;;;11.35;2.30;;;12.70;88.90;;;;;;5053481;28;20095;-77
2021/08/17 01:54:47;;;;;;;8.50;2.20;;;12.70;89.10;;;;;;5053437;28;20021;-78
2021/08/17 01:57:13;;;;;;;10.18;2.03;;;12.70;89.20;;;;;;5053488;28;20025;-77
2021/08/17 01:59:38;;;;;;;15.70;2.65;;;12.70;89.40;;;;;;5054644;28;20504;-78
2021/08/17 02:02:08;;;;;;;10.93;2.65;;;12.60;89.60;;;;;;5053453;28;20021;-78
2021/08/17 02:04:34;;;;;;;11.10;2.13;;;12.60;89.80;;;;;;5053411;28;20116;-78
2021/08/17 02:07:00;;;;;;;11.80;1.92;;;12.50;89.90;;;;;;5054486;28;20028;-77
2021/08/17 02:09:26;;;;;;;9.40;2.00;;;12.60;90.00;;;;;;5020120;28;20032;-78
2021/08/17 02:11:51;;;;;;;6.85;2.25;;;12.60;90.10;;;;;;5036511;28;20056;-77
2021/08/17 02:14:17;;;;;;;7.88;2.17;;;12.60;90.10;;;;;;5036614;28;20028;-78
2021/08/17 02:16:43;;;;;;;11.63;3.33;;;12.50;90.20;;;;;;5036650;28;20107;-77
2021/08/17 02:19:08;;;;;;;6.10;1.98;;;12.50;90.20;;;;;;5053099;28;20017;-77
2021/08/17 02:21:34;;;;;;;10.80;3.13;;;12.50;90.30;;;;;;5053080;28;20036;-77
2021/08/17 02:23:59;;;;;;;9.15;2.17;;;12.50;90.60;;;;;;5053197;28;20025;-77
2021/08/17 02:26:25;;;;;;;10.80;2.58;;;12.40;90.70;;;;;;5053043;28;20021;-77
2021/08/17 02:28:51;;;;;;;13.18;3.03;;;12.40;90.90;;;;;;5054176;28;20388;-76
2021/08/17 02:31:16;;;;;;;11.20;2.97;;;12.50;91.00;;;;;;5052854;28;20187;-78
2021/08/17 02:33:42;;;;;;;12.25;2.97;;;12.50;91.00;;;;;;5036136;28;20025;-77
2021/08/17 02:36:08;;;;;;;12.95;2.63;;;12.50;91.20;;;;;;5019847;28;20115;-77
2021/08/17 02:38:33;;;;;;;9.07;2.55;;;12.40;91.30;;;;;;5052563;28;20048;-77
2021/08/17 02:40:59;;;;;;;14.00;3.00;;;12.40;91.30;;;;;;5052809;28;20388;-77
2021/08/17 02:43:25;;;;;;;10.40;2.78;;;12.40;91.40;;;;;;5019487;28;20029;-77
2021/08/17 02:45:55;;;;;;;10.52;2.85;;;12.40;91.40;;;;;;5053854;28;20679;-77
2021/08/17 02:48:21;;;;;;;10.38;2.72;;;12.30;91.50;;;;;;5052424;28;20027;-78
2021/08/17 02:50:47;;;;;;;11.63;3.08;;;12.40;91.50;;;;;;5035352;28;20120;-76
2021/08/17 02:53:13;;;;;;;8.38;2.33;;;12.40;91.60;;;;;;5053564;28;20068;-78
2021/08/17 02:55:39;;;;;;;10.68;2.85;;;12.40;91.60;;;;;;5052463;28;20067;-78
2021/08/17 02:58:09;;;;;;;11.65;2.92;;;12.40;91.80;;;;;;5053591;28;20017;-77
2021/08/17 03:00:36;;;;;;;12.43;2.85;;;12.40;91.80;;;;;;5036307;28;20036;-77
2021/08/17 03:03:02;;;;;;;13.13;3.00;;;12.30;91.80;;;;;;5053464;28;20087;-77
2021/08/17 03:05:28;;;;;;;16.23;4.43;;;12.30;92.20;;;;;;5053462;28;20021;-78
2021/08/17 03:08:00;;;;;;;10.95;2.70;;;12.40;92.00;;;;;;5052247;28;20401;-77
2021/08/17 03:10:26;;;;;;;8.80;2.70;;;12.30;92.20;;;;;;5052207;28;20385;-77
2021/08/17 03:12:52;;;;;;;6.72;2.28;;;12.40;92.00;;;;;;5052278;28;20025;-78
2021/08/17 03:15:19;;;;;;;7.22;2.47;;;12.40;92.10;;;;;;5052135;28;20431;-76
2021/08/17 03:17:44;;;;;;;17.02;3.53;;;12.40;92.40;;;;;;5035570;28;20117;-77
2021/08/17 03:20:11;;;;;;;11.90;2.78;;;12.40;92.30;;;;;;5052129;28;20052;-77
2021/08/17 03:22:37;;;;;;;9.80;3.22;;;12.40;92.30;;;;;;5053412;28;20024;-77
2021/08/17 03:25:09;;;;;;;11.18;3.10;;;12.40;92.50;;;;;;5051933;28;20025;-77
2021/08/17 03:27:36;;;;;;;11.25;2.80;;;12.40;92.40;;;;;;5052036;28;20040;-77
2021/08/17 03:30:05;;;;;;;12.32;3.33;;;12.40;92.60;;;;;;5052020;28;20036;-77
2021/08/17 03:32:31;;;;;;;10.15;2.83;;;12.40;92.60;;;;;;5051915;28;20025;-77
2021/08/17 03:34:57;;;;;;;10.60;3.13;;;12.50;92.70;;;;;;5018958;28;20493;-77
2021/08/17 03:37:22;;;;;;;11.27;3.40;;;12.50;92.80;;;;;;5035312;28;20045;-77
2021/08/17 03:39:48;;;;;;;9.70;3.15;;;12.50;92.90;;;;;;5035366;28;20060;-77
2021/08/17 03:42:13;;;;;;;10.55;3.40;;;12.50;92.90;;;;;;5035125;28;20025;-76
2021/08/17 03:44:39;;;;;;;11.10;3.60;;;12.50;93.00;;;;;;5070634;28;20028;-77
2021/08/17 03:47:04;;;;;;;14.73;3.15;;;12.40;93.00;;;;;;5073236;28;20032;-77
2021/08/17 03:49:30;;;;;;;10.27;2.88;;;12.50;93.10;;;;;;5071478;28;20060;-77
2021/08/17 03:51:56;;;;;;;12.05;3.92;;;12.50;93.30;;;;;;5073168;28;20024;-77
2021/08/17 03:54:22;;;;;;;11.55;3.05;;;12.50;93.40;;;;;;5053769;28;20023;-77
2021/08/17 03:56:47;;;;;;;18.83;5.00;;;12.60;93.50;;;;;;5060504;28;20018;-78
2021/08/17 03:59:13;;;;;;;10.35;3.83;;;12.60;93.60;;;;;;5051781;28;20104;-78
2021/08/17 04:01:38;;;;;;;8.77;2.95;;;12.60;93.50;;;;;;5058563;28;20101;-77
2021/08/17 04:04:04;;;;;;;9.57;3.03;;;12.70;93.40;;;;;;5054617;28;20495;-78
2021/08/17 04:06:30;;;;;;;10.90;2.88;;;12.70;93.40;;;;;;5056569;28;20029;-77
2021/08/17 04:08:55;;;;;;;6.90;2.90;;;12.70;93.40;;;;;;5038780;28;20021;-78
2021/08/17 04:11:21;;;;;;;10.82;2.50;;;12.70;93.40;;;;;;5055807;28;20037;-78
2021/08/17 04:13:46;;;;;;;8.77;3.25;;;12.80;93.40;;;;;;5057439;28;20381;-77
2021/08/17 04:16:12;;;;;;;11.02;3.63;;;12.70;93.50;;;;;;5072178;28;20029;-77
2021/08/17 04:18:37;;;;;;;10.90;3.35;;;12.70;93.70;;;;;;5072120;28;20461;-77
2021/08/17 04:21:03;;;;;;;11.55;3.55;;;12.70;93.70;;;;;;5072351;28;20029;-77
2021/08/17 04:23:29;;;;;;;10.52;3.83;;;12.70;93.70;;;;;;5072135;28;20559;-78
2021/08/17 04:25:54;;;;;;;11.45;4.32;;;12.70;93.80;;;;;;5056424;28;20025;-78
2021/08/17 04:28:20;;;;;;;11.85;4.32;;;12.60;94.10;;;;;;5055845;28;20053;-77
2021/08/17 04:30:46;;;;;;;11.00;4.43;;;12.70;94.20;;;;;;5072488;28;20032;-77
2021/08/17 04:33:11;;;;;;;16.38;5.65;;;12.70;94.30;;;;;;5038891;28;20473;-78
2021/08/17 04:35:37;;;;;;;13.18;4.68;;;12.70;94.40;;;;;;5038921;28;20025;-76
2021/08/17 04:38:02;;;;;;;11.60;5.35;;;12.80;94.40;;;;;;5071314;28;20091;-77
2021/08/17 04:40:28;;;;;;;13.07;5.82;;;12.80;94.60;;;;;;5038387;28;20028;-76
2021/08/17 04:42:54;;;;;;;12.10;5.30;;;12.80;94.70;;;;;;5055502;28;20040;-76
2021/08/17 04:45:19;;;;;;;15.85;5.50;;;12.80;94.70;;;;;;5038512;28;20040;-77
2021/08/17 04:47:50;;;;;;;17.27;6.28;;;12.80;94.70;;;;;;5042079;28;20029;-77
2021/08/17 04:50:17;;;;;;;16.30;6.15;;;12.80;94.70;;;;;;5066314;28;20032;-78
2021/08/17 04:52:42;;;;;;;15.80;5.80;;;12.80;94.80;;;;;;5061596;28;20036;-77
2021/08/17 04:55:09;;;;;;;12.98;5.20;;;12.90;94.70;;;;;;5071484;28;20047;-77
2021/08/17 04:57:47;;;;;;;15.32;5.80;;;12.90;94.80;;;;;;5071765;28;20033;-77
2021/08/17 05:00:14;;;;;;;14.77;6.35;;;13.00;94.80;;;;;;5055060;28;20032;-77
2021/08/17 05:02:40;;;;;;;12.77;5.80;;;13.00;94.80;;;;;;5056040;28;20580;-78
2021/08/17 05:05:05;;;;;;;11.93;5.43;;;12.90;94.70;;;;;;5071629;28;20064;-77
2021/08/17 05:07:31;;;;;;;15.13;6.05;;;13.00;94.80;;;;;;5054697;28;20123;-77
2021/08/17 05:09:58;;;;;;;15.43;6.95;;;13.10;94.90;;;;;;5054694;28;20118;-77
2021/08/17 05:12:24;;;;;;;15.15;6.47;;;13.10;94.90;;;;;;5070756;28;20048;-77
2021/08/17 05:14:50;;;;;;;17.58;7.50;;;13.10;94.80;;;;;;5071491;28;20025;-78
2021/08/17 05:17:15;;;;;;;21.23;7.70;;;13.20;94.90;;;;;;5054530;28;20128;-78
2021/08/17 05:19:41;;;;;;;16.30;7.32;;;13.20;94.80;;;;;;5071118;28;20032;-77
2021/08/17 05:22:06;;;;;;;20.48;7.10;;;13.30;94.90;;;;;;5071130;28;20033;-78
2021/08/17 05:24:32;;;;;;;16.52;7.95;;;13.20;94.70;;;;;;5071125;28;20032;-77
2021/08/17 05:26:57;;;;;;;19.80;9.25;;;13.30;94.80;;;;;;5070955;28;20499;-77
2021/08/17 05:29:23;;;;;;;18.75;9.80;;;13.30;94.90;;;;;;5055394;28;20116;-77
2021/08/17 05:31:49;;;;;;;26.75;10.63;;;13.30;94.80;;;;;;5054171;28;20017;-78
2021/08/17 05:34:14;;;;;;;23.05;10.88;;;13.40;95.30;;;;;;5037822;28;20029;-76
2021/08/17 05:36:40;;;;;;;29.80;12.68;;;13.40;95.10;;;;;;5038043;28;20044;-77
2021/08/17 05:39:05;;;;;;;26.30;12.65;;;13.50;95.20;;;;;;5053767;28;20124;-77
2021/08/17 05:41:31;;;;;;;31.58;14.38;;;13.50;95.20;;;;;;5054308;28;20025;-77
2021/08/17 05:43:56;;;;;;;31.70;15.75;;;13.60;95.40;;;;;;5054094;28;20025;-77
2021/08/17 05:46:22;;;;;;;33.88;15.65;;;13.60;95.40;;;;;;5037317;28;20021;-77
2021/08/17 05:48:48;;;;;;;34.10;15.82;;;13.70;95.60;;;;;;5049008;28;20557;-77
2021/08/17 05:51:13;;;;;;;36.75;17.70;;;13.80;95.70;;;;;;5074978;28;20099;-77
2021/08/17 05:53:39;;;;;;;41.38;18.73;;;13.80;95.80;;;;;;5073811;28;20472;-77
2021/08/17 05:56:05;;;;;;;40.22;17.85;;;13.90;96.00;;;;;;5057168;28;20025;-77
2021/08/17 05:58:30;;;;;;;38.80;17.95;;;14.00;96.00;;;;;;5057543;28;20044;-78
2021/08/17 06:00:56;;;;;;;42.33;18.70;;;14.00;96.00;;;;;;5040258;28;20459;-77
2021/08/17 06:03:22;;;;;;;35.85;17.55;;;14.10;95.90;;;;;;5056637;28;20033;-77
2021/08/17 06:05:47;;;;;;;35.25;16.38;;;14.20;96.00;;;;;;5073283;28;20138;-77
2021/08/17 06:08:13;;;;;;;39.35;17.60;;;14.20;95.90;;;;;;5056679;28;20097;-77
2021/08/17 06:10:38;;;;;;;40.42;18.50;;;14.20;96.10;;;;;;5056805;28;20024;-78
2021/08/17 06:13:04;;;;;;;40.45;18.83;;;14.30;96.00;;;;;;5040287;28;20541;-77
2021/08/17 06:15:30;;;;;;;40.28;19.30;;;14.30;96.10;;;;;;5056832;28;20503;-78
2021/08/17 06:18:01;;;;;;;44.50;21.50;;;14.30;96.00;;;;;;5073523;28;20056;-78
2021/08/17 06:20:27;;;;;;;36.22;18.30;;;14.40;96.10;;;;;;5057441;28;20359;-78
2021/08/17 06:22:53;;;;;;;43.60;20.27;;;14.50;96.10;;;;;;5073409;28;20032;-78
2021/08/17 06:25:19;;;;;;;46.55;20.33;;;14.50;96.10;;;;;;5073444;28;20028;-78
2021/08/17 06:27:44;;;;;;;41.45;18.80;;;14.60;96.10;;;;;;5040051;28;20137;-78
2021/08/17 06:30:10;;;;;;;41.80;18.77;;;14.70;96.00;;;;;;5057535;28;20071;-78
2021/08/17 06:32:36;;;;;;;36.75;18.60;;;14.70;96.00;;;;;;5073352;28;20409;-78
2021/08/17 06:35:03;;;;;;;40.72;19.02;;;14.80;95.90;;;;;;5056503;28;20021;-77
2021/08/17 06:37:29;;;;;;;43.90;19.98;;;14.90;95.90;;;;;;5073196;28;20488;-78
2021/08/17 06:39:55;;;;;;;41.78;20.60;;;14.90;95.80;;;;;;5073029;28;20078;-78
2021/08/17 06:42:21;;;;;;;43.20;20.52;;;15.00;95.80;;;;;;5056204;28;20029;-78
2021/08/17 06:44:46;;;;;;;44.33;20.60;;;15.00;95.70;;;;;;5056209;28;20040;-78
2021/08/17 06:47:12;;;;;;;44.88;20.85;;;15.00;95.70;;;;;;5073173;28;20032;-77
2021/08/17 06:49:38;;;;;;;43.25;21.13;;;15.10;95.70;;;;;;5055910;28;20028;-78
2021/08/17 06:52:04;;;;;;;44.30;20.00;;;15.10;95.60;;;;;;5074279;28;20037;-77
2021/08/17 06:54:30;;;;;;;46.22;21.17;;;15.20;95.60;;;;;;5073856;28;20396;-79
2021/08/17 06:56:55;;;;;;;45.70;19.65;;;15.20;95.60;;;;;;5056009;28;20021;-78
2021/08/17 06:59:21;;;;;;;43.78;20.55;;;15.30;95.50;;;;;;5056278;28;20025;-78
2021/08/17 07:01:47;;;;;;;46.05;20.98;;;15.40;95.50;;;;;;5056257;28;20356;-78
2021/08/17 07:04:12;;;;;;;39.65;18.92;;;15.40;95.50;;;;;;5039230;28;20052;-77
2021/08/17 07:06:38;;;;;;;47.58;20.80;;;15.40;95.40;;;;;;5072523;28;20025;-78
2021/08/17 07:09:04;;;;;;;41.67;19.65;;;15.50;95.40;;;;;;5070041;28;20192;-78
2021/08/17 07:11:30;;;;;;;43.75;20.90;;;15.60;95.30;;;;;;5073423;28;20094;-77
2021/08/17 07:13:56;;;;;;;46.70;21.88;;;15.60;95.20;;;;;;5073317;28;20115;-79
2021/08/17 07:16:22;;;;;;;39.40;19.20;;;15.60;95.20;;;;;;5072316;28;20052;-77
2021/08/17 07:18:47;;;;;;;36.85;17.98;;;15.60;95.10;;;;;;5055421;28;20038;-78
2021/08/17 07:21:13;;;;;;;40.10;17.27;;;15.70;95.10;;;;;;5072194;28;20028;-77
2021/08/17 07:23:39;;;;;;;39.75;19.00;;;15.70;95.00;;;;;;5055274;28;20033;-78
2021/08/17 07:26:04;;;;;;;38.63;19.08;;;15.70;95.00;;;;;;5038917;28;20111;-78
2021/08/17 07:28:31;;;;;;;40.65;18.35;;;15.80;94.90;;;;;;5072127;28;20055;-78
2021/08/17 07:30:56;;;;;;;37.13;18.67;;;15.80;94.90;;;;;;5073115;28;20032;-78
2021/08/17 07:33:22;;;;;;;42.42;17.27;;;15.80;94.80;;;;;;5073331;28;20481;-77
2021/08/17 07:35:48;;;;;;;41.42;19.20;;;15.90;94.80;;;;;;5056653;28;20025;-79
2021/08/17 07:38:14;;;;;;;37.88;17.83;;;15.90;94.70;;;;;;5078575;28;20094;-78
2021/08/17 07:40:40;;;;;;;41.20;19.25;;;16.00;94.80;;;;;;5079846;28;20021;-77
2021/08/17 07:43:06;;;;;;;34.85;15.50;;;16.00;94.70;;;;;;5078344;28;20031;-78
2021/08/17 07:45:32;;;;;;;47.80;18.95;;;16.10;94.70;;;;;;5078774;28;20030;-79
2021/08/17 07:47:58;;;;;;;36.17;17.90;;;16.20;94.60;;;;;;5078335;28;20456;-77
2021/08/17 07:50:24;;;;;;;43.13;17.88;;;16.20;94.60;;;;;;5045424;28;20179;-77
2021/08/17 07:52:50;;;;;;;33.60;14.55;;;16.20;94.50;;;;;;5079698;28;20024;-78
2021/08/17 07:55:17;;;;;;;34.60;16.50;;;16.30;94.50;;;;;;5062162;28;20028;-77
2021/08/17 07:57:43;;;;;;;36.35;15.88;;;16.40;94.50;;;;;;5078414;28;20090;-78
2021/08/17 08:00:12;;;;;;;32.45;15.13;;;16.50;94.40;;;;;;5045151;28;20427;-78
2021/08/17 08:02:37;;;;;;;33.92;14.43;;;16.60;94.40;;;;;;5078318;28;20024;-78
2021/08/17 08:05:04;;;;;;;37.72;16.83;;;16.70;94.20;;;;;;5061689;28;20116;-77
2021/08/17 08:07:30;;;;;;;29.65;15.23;;;16.80;94.10;;;;;;5078376;28;20036;-77
2021/08/17 08:09:56;;;;;;;30.17;14.30;;;16.80;94.00;;;;;;5078441;28;20029;-79
2021/08/17 08:12:22;;;;;;;29.73;13.95;;;16.90;93.80;;;;;;5078378;28;20380;-79
2021/08/17 08:14:49;;;;;;;29.55;14.43;;;17.00;93.90;;;;;;5079452;28;20017;-78
2021/08/17 08:17:14;;;;;;;38.03;15.40;;;17.00;93.40;;;;;;5061788;28;20028;-78
2021/08/17 08:19:40;;;;;;;33.15;14.85;;;17.10;93.20;;;;;;5079546;28;20380;-78
2021/08/17 08:22:07;;;;;;;28.67;14.38;;;17.00;93.20;;;;;;5061561;28;20028;-76
2021/08/17 08:24:34;;;;;;;32.25;14.27;;;17.10;93.00;;;;;;5061655;28;20040;-77
2021/08/17 08:27:00;;;;;;;27.20;12.95;;;17.10;92.90;;;;;;5078516;28;20384;-78
2021/08/17 08:29:26;;;;;;;27.33;13.13;;;17.10;92.90;;;;;;5078031;28;20035;-77
2021/08/17 08:31:52;;;;;;;28.42;13.93;;;17.20;92.80;;;;;;5078187;28;20020;-79
2021/08/17 08:34:18;;;;;;;22.35;11.93;;;17.20;92.60;;;;;;5078067;28;20016;-77
2021/08/17 08:36:43;;;;;;;24.77;11.15;;;17.20;92.40;;;;;;5042067;28;20029;-78
2021/08/17 08:39:11;;;;;;;24.67;12.23;;;17.30;92.40;;;;;;5041248;28;20076;-78
2021/08/17 08:41:38;;;;;;;23.70;12.85;;;17.30;92.20;;;;;;5056890;28;20103;-78
2021/08/17 08:44:04;;;;;;;22.33;10.95;;;17.20;92.00;;;;;;5058961;28;20096;-78
2021/08/17 08:46:30;;;;;;;27.08;12.40;;;17.30;92.00;;;;;;5059135;28;20113;-78
2021/08/17 08:48:56;;;;;;;26.45;11.90;;;17.30;92.00;;;;;;5053456;28;20104;-78
2021/08/17 08:51:22;;;;;;;24.40;11.25;;;17.20;91.60;;;;;;5037490;28;20078;-80
2021/08/17 08:53:49;;;;;;;26.45;11.90;;;17.20;91.50;;;;;;5056023;28;20021;-75
2021/08/17 08:56:16;;;;;;;20.70;10.43;;;17.20;91.50;;;;;;5055882;28;20388;-78
2021/08/17 08:58:43;;;;;;;25.98;10.38;;;17.20;91.40;;;;;;5054432;28;20067;-77
2021/08/17 09:01:18;;;;;;;23.00;10.90;;;17.20;91.40;;;;;;5054466;28;20178;-78
2021/08/17 09:03:45;;;;;;;25.88;11.10;;;17.20;91.30;;;;;;5055670;28;20029;-78
2021/08/17 09:06:19;;;;;;;23.13;10.95;;;17.20;91.30;;;;;;5055713;28;20057;-78
2021/08/17 09:08:45;;;;;;;22.52;10.88;;;17.10;91.40;;;;;;5055893;28;20055;-78
2021/08/17 09:11:20;;;;;;;23.00;11.93;;;17.10;91.30;;;;;;5054374;28;20032;-76
2021/08/17 09:13:46;;;;;;;27.90;12.68;;;17.10;91.40;;;;;;5055769;28;20086;-76
2021/08/17 09:16:30;;;;;;;22.92;11.80;;;17.10;91.60;;;;;;5054329;28;20029;-77
2021/08/17 09:18:57;;;;;;;20.88;9.20;;;17.20;91.60;;;;;;5055789;28;20096;-78
2021/08/17 09:21:35;;;;;;;22.48;10.35;;;17.30;91.60;;;;;;5054147;28;20040;-78
2021/08/17 09:24:34;;;;;;;21.63;11.07;;;17.30;91.30;;;;;;5055387;28;20060;-78
2021/08/17 09:27:12;;;;;;;23.65;10.77;;;17.40;91.00;;;;;;5064987;28;20040;-76
2021/08/17 09:29:43;;;;;;;21.58;10.90;;;17.40;90.80;;;;;;5055115;28;20063;-76
2021/08/17 09:32:14;;;;;;;20.70;10.95;;;17.40;90.50;;;;;;5075153;28;20024;-77
2021/08/17 09:34:41;;;;;;;23.13;9.95;;;17.50;90.50;;;;;;5074187;28;20519;-79
2021/08/17 09:37:09;;;;;;;20.05;10.77;;;17.50;90.40;;;;;;5072203;28;20024;-77
2021/08/17 09:39:40;;;;;;;23.85;10.05;;;17.60;90.10;;;;;;5073688;28;20032;-78
2021/08/17 09:42:11;;;;;;;22.85;10.27;;;17.60;89.80;;;;;;5073912;28;20012;-77
2021/08/17 09:44:37;;;;;;;20.48;10.15;;;17.70;89.20;;;;;;5074191;28;20020;-78
2021/08/17 09:47:03;;;;;;;18.45;9.73;;;17.80;88.60;;;;;;5073535;28;20033;-76
2021/08/17 09:49:32;;;;;;;20.10;9.82;;;17.80;88.00;;;;;;5070858;28;20545;-77
2021/08/17 09:52:10;;;;;;;17.05;9.05;;;17.80;88.20;;;;;;5057448;28;20036;-78
2021/08/17 09:54:44;;;;;;;20.77;9.55;;;17.90;88.10;;;;;;5054579;28;20021;-77
2021/08/17 09:57:10;;;;;;;18.65;8.73;;;17.80;87.70;;;;;;5055051;28;20028;-76
2021/08/17 09:59:39;;;;;;;17.65;9.25;;;17.80;87.10;;;;;;5053531;28;20059;-76
2021/08/17 10:02:06;;;;;;;18.50;9.93;;;17.80;87.10;;;;;;5053659;28;20048;-78
2021/08/17 10:04:32;;;;;;;20.65;9.57;;;17.80;86.90;;;;;;5037291;28;20392;-79
2021/08/17 10:06:59;;;;;;;15.80;8.63;;;17.80;87.10;;;;;;5053764;28;20025;-80
2021/08/17 10:09:27;;;;;;;20.92;9.32;;;17.80;87.00;;;;;;5053772;28;20123;-82
2021/08/17 10:11:54;;;;;;;16.85;8.80;;;17.70;86.50;;;;;;5054052;28;20023;-76
2021/08/17 10:14:19;;;;;;;19.88;8.65;;;17.70;86.50;;;;;;5054838;28;20029;-78
2021/08/17 10:16:45;;;;;;;17.05;7.68;;;17.70;87.00;;;;;;5054899;28;20025;-78
2021/08/17 10:19:16;;;;;;;17.20;7.85;;;17.80;87.20;;;;;;5054871;28;20032;-78
2021/08/17 10:21:45;;;;;;;16.92;7.78;;;17.80;87.10;;;;;;5054633;28;20060;-78
2021/08/17 10:24:40;;;;;;;15.10;8.27;;;17.80;87.40;;;;;;5036638;28;20036;-77
2021/08/17 10:27:33;;;;;;;20.33;8.52;;;17.90;86.60;;;;;;5053572;28;20021;-78
2021/08/17 10:30:25;;;;;;;15.73;7.40;;;17.90;86.50;;;;;;5053031;28;20041;-80
2021/08/17 10:32:59;;;;;;;17.25;7.75;;;17.90;86.30;;;;;;5036970;28;20572;-76
2021/08/17 10:35:34;;;;;;;15.35;7.65;;;17.90;86.10;;;;;;5036062;28;20634;-77
2021/08/17 10:38:12;;;;;;;15.10;6.68;;;17.90;86.00;;;;;;5052409;28;20409;-77
2021/08/17 10:40:53;;;;;;;17.40;7.22;;;17.90;86.10;;;;;;5054257;28;20040;-76
2021/08/17 10:43:30;;;;;;;12.63;6.25;;;17.80;85.30;;;;;;5054211;28;20021;-76
2021/08/17 10:46:00;;;;;;;12.93;6.00;;;17.80;85.30;;;;;;5054224;28;20025;-76
2021/08/17 10:51:18;;;;;;;14.88;7.10;;;17.70;85.00;;;;;;5054029;28;20366;-78
2021/08/17 10:53:47;;;;;;;13.02;7.38;;;17.70;85.40;;;;;;5054081;28;20498;-78
2021/08/17 10:56:16;;;;;;;15.88;7.93;;;17.70;85.80;;;;;;5054204;28;20021;-77
2021/08/17 10:58:45;;;;;;;16.58;7.50;;;17.80;85.90;;;;;;5052668;28;20028;-76
2021/08/17 11:01:12;;;;;;;14.52;7.63;;;17.70;85.90;;;;;;5052588;28;20025;-77
2021/08/17 11:03:39;;;;;;;16.20;6.45;;;17.70;85.60;;;;;;5053807;28;20033;-78
2021/08/17 11:06:05;;;;;;;10.55;5.50;;;17.70;85.10;;;;;;5052428;28;20033;-78
2021/08/17 11:08:31;;;;;;;12.93;4.80;;;17.60;84.40;;;;;;5054020;28;20090;-77
2021/08/17 11:11:20;;;;;;;12.77;5.10;;;17.50;84.40;;;;;;5051661;28;20029;-78
2021/08/17 11:14:07;;;;;;;11.82;4.65;;;17.50;84.50;;;;;;5052864;28;20028;-77
2021/08/17 11:16:34;;;;;;;9.38;4.55;;;17.30;83.00;;;;;;5052617;28;20056;-76
2021/08/17 11:19:02;;;;;;;11.48;3.83;;;17.30;82.70;;;;;;5053547;28;20025;-77
2021/08/17 11:21:36;;;;;;;10.27;3.63;;;17.20;82.60;;;;;;5053426;28;20365;-80
2021/08/17 11:24:13;;;;;;;13.70;3.80;;;17.20;82.50;;;;;;5052405;28;20028;-79
2021/08/17 11:26:41;;;;;;;10.55;3.88;;;17.10;82.20;;;;;;5053707;28;20477;-78
2021/08/17 11:29:06;;;;;;;7.28;3.88;;;17.10;82.80;;;;;;5052227;28;20033;-78
2021/08/17 11:31:43;;;;;;;9.60;4.10;;;17.10;83.40;;;;;;5052257;28;20600;-79
2021/08/17 11:34:17;;;;;;;9.38;4.03;;;17.00;84.10;;;;;;5052213;28;20020;-79
2021/08/17 11:37:11;;;;;;;10.27;4.75;;;17.00;84.90;;;;;;5051997;28;20032;-78
2021/08/17 11:39:54;;;;;;;14.80;4.90;;;17.00;85.90;;;;;;5051965;28;20083;-77
2021/08/17 11:42:26;;;;;;;10.68;4.63;;;17.00;87.50;;;;;;5053121;28;20029;-77
2021/08/17 11:44:55;;;;;;;12.52;4.55;;;16.90;87.00;;;;;;5053289;28;20039;-77
2021/08/17 11:47:22;;;;;;;14.32;4.68;;;16.90;88.00;;;;;;5053162;28;20037;-78
2021/08/17 11:49:56;;;;;;;11.65;5.15;;;16.90;88.70;;;;;;5053489;28;20082;-78
2021/08/17 11:52:33;;;;;;;12.77;5.80;;;16.90;90.00;;;;;;5052614;28;20021;-79
2021/08/17 11:55:03;;;;;;;14.10;6.43;;;16.80;90.40;;;;;;5052161;28;20036;-77
2021/08/17 11:57:36;;;;;;;14.57;5.68;;;16.80;90.70;;;;;;5053332;28;20029;-77
2021/08/17 12:00:23;;;;;;;16.60;6.20;;;16.60;91.00;;;;;;5053503;28;20036;-78
2021/08/17 12:02:53;;;;;;;13.77;6.03;;;16.60;91.50;;;;;;5053077;28;20029;-77
2021/08/17 12:05:22;;;;;;;13.95;5.55;;;16.50;91.50;;;;;;5053015;28;20036;-77
2021/08/17 12:07:49;;;;;;;16.30;7.50;;;16.50;91.80;;;;;;5051829;28;20032;-78
2021/08/17 12:10:25;;;;;;;14.52;7.00;;;16.30;92.20;;;;;;5053594;28;20063;-78
2021/08/17 12:13:08;;;;;;;16.95;6.97;;;16.20;92.60;;;;;;5052226;28;20033;-77
2021/08/17 12:15:43;;;;;;;14.98;7.78;;;16.10;93.00;;;;;;5052135;28;20021;-77
2021/08/17 12:18:17;;;;;;;15.57;8.57;;;15.90;94.20;;;;;;5052642;28;20021;-76
2021/08/17 12:20:49;;;;;;;16.55;8.45;;;15.70;94.80;;;;;;5053075;28;20035;-75
2021/08/17 12:23:28;;;;;;;19.63;9.13;;;15.50;95.50;;;;;;5054331;28;20067;-78
2021/08/17 12:26:08;;;;;;;20.30;9.80;;;15.20;95.70;;;;;;5055330;28;20498;-78
2021/08/17 12:28:35;;;;;;;20.95;9.77;;;15.20;96.20;;;;;;5055263;28;20040;-77
2021/08/17 12:31:30;;;;;;;21.17;9.50;;;15.10;96.70;;;;;;5056199;28;20029;-75
2021/08/17 12:34:06;;;;;;;18.35;9.10;;;15.00;96.90;;;;;;5056538;28;20025;-78
2021/08/17 12:36:38;;;;;;;17.15;9.02;;;15.00;97.00;;;;;;5056272;28;20102;-78
2021/08/17 12:39:08;;;;;;;19.30;10.00;;;14.90;97.00;;;;;;5055833;28;20088;-78
2021/08/17 12:41:36;;;;;;;17.00;8.88;;;14.90;97.20;;;;;;5054825;28;20025;-77
2021/08/17 12:44:14;;;;;;;22.30;9.30;;;15.00;97.20;;;;;;5054864;28;20033;-77